• Join FlightAware (Why Join?)
  • Login
  • US Flag 
05:54AM EDT


 

Airport Tracker/Info


-or-


 

Live Flight TrackerFlight Track Log ✈ ELT218 ✈ 10-May-2013 ✈ KINL - KDLH

Flight Track Log - Related Links

Times and Time Zones

All times are in EDT time to prevent confusion due to time zone crossing. See the ELT218 flight status page for this flight to view local times or setup timezone preferences in your user account.

Time Position Orientation Groundspeed Altitude Reporting Facility
EDT Latitude Longitude Course Direction KTS MPH feet Rate Location/Type
06:25PM 48.5281 -93.3486 152° Southeast 129 148 3,900  Level Minneapolis Center
06:26PM 48.4919 -93.3194 152° Southeast 146 168 5,900 1,920 Climbing Minneapolis Center
06:27PM 48.4531 -93.2883 152° Southeast 151 174 7,900 1,860 Climbing Minneapolis Center
06:28PM 48.4097 -93.2594 156° South 160 184 9,800 1,740 Climbing Minneapolis Center
06:29PM 48.3525 -93.2233 157° South 174 200 11,500 1,680 Climbing Minneapolis Center
06:30PM 48.2908 -93.1797 155° Southeast 191 220 13,700 1,500 Climbing Minneapolis Center
06:31PM 48.2378 -93.1419 155° Southeast 201 231 15,000 600 Climbing Minneapolis Center
06:32PM 48.1747 -93.0972 155° Southeast 228 262 15,000  Level Minneapolis Center
06:33PM 48.1058 -93.0481 155° Southeast 260 299 15,000  Level Minneapolis Center
06:34PM 48.0347 -92.9986 155° Southeast 273 314 15,000  Level Minneapolis Center
06:35PM 47.9481 -92.9383 155° Southeast 281 323 15,000  Level Minneapolis Center
06:36PM 47.8758 -92.8878 155° Southeast 284 327 15,000  Level Minneapolis Center
06:37PM 47.8017 -92.8406 157° South 287 330 15,000  Level Minneapolis Center
06:38PM 47.7272 -92.7981 159° South 287 330 15,000  Level Minneapolis Center
06:39PM 47.6528 -92.7539 158° South 287 330 15,000  Level Minneapolis Center
06:40PM 47.5781 -92.7106 159° South 287 330 15,000  Level Minneapolis Center
06:41PM 47.5033 -92.6672 159° South 287 330 15,000 -540 Level Minneapolis Center
06:42PM 47.4125 -92.6147 159° South 288 331 13,900 -1,320 Descending Minneapolis Center
06:43PM 47.3336 -92.5706 159° South 294 338 12,300 -1,500 Descending Minneapolis Center
06:44PM 47.2569 -92.5269 159° South 296 341 10,800 -1,500 Descending Minneapolis Center
06:45PM 47.1817 -92.4839 159° South 294 338 9,300 -1,500 Descending Minneapolis Center
06:47PM 47.1081 -92.4419 159° South 289 333 7,800 -1,440 Descending Minneapolis Center
06:48PM 47.0358 -92.4006 159° South 284 327 6,300 -1,440 Descending Minneapolis Center
06:49PM 46.9658 -92.3619 159° South 277 319 4,900 -1,440 Descending Minneapolis Center
06:50PM 46.8936 -92.3217 159° South 253 291 3,400 -1,140 Descending Minneapolis Center
06:51PM 46.8469 -92.2917 156° South 216 249 2,600 -780 Descending Minneapolis Center
06:52PM 46.8450 -92.2297 93° East 175 201 1,900 -720 Descending Minneapolis Center
06:54PM 46.8421 -92.1936 146° Southeast  Level Estimated
07:01PM 46.8421 -92.1936 146° Southeast  Level Estimated
07:02PM 46.8421 -92.1936 146° Southeast  Level Estimated